Trivendrun Air Cargo|Importer Data ofTrivendrun Air CargoPort India

Date India Port Hs Code Product Foreign Country Quantity Unit Total ValueIn INR Unit Rate INR Total Value USD Unit Value USD Chapter
23-04-2016 00:00:00 Trivendrun Air Cargo 84142090 500 DEGREE CELCIUS 91 L FLOOR STAND VACUUM OVEN WITH 2 HEATING ZONES VACUUM PUMP AND WAFER CHILLET WITH ACCESSORIES EQ D UNITED STATES 1 UNT 1540900.49 1540900.49 23032.89 23032.89 84
23-04-2016 00:00:00 Trivendrun Air Cargo 48211010 MCO-1 ( 401 ) AIRLINE PRINTED ACCOUNTABLE DOCUMENTS( BEARING INSIGNIA OF SILK AIR) SINGAPORE 5 NOS 15.28 3.05 0.22 0.04 48
23-04-2016 00:00:00 Trivendrun Air Cargo 84714190 SMARTFUSION DEVELOPMENT KIT WITH A2F500M3G-FGG484ESA2F500DEV KIT SINGAPORE 2 NOS 156611.10 78305.55 2340.97 1170.48 84
23-04-2016 00:00:00 Trivendrun Air Cargo 84714190 SMARTFUSION DEVELOPMENT KIT WITH A2F200M3G-FGG484ESA2F500DEV KIT SINGAPORE 2 NOS 17401.23 8700.61 260.10 130.05 84
23-04-2016 00:00:00 Trivendrun Air Cargo 84714190 SMART FUSION INDUSTRIAL TEMPERATURE FG484BALLGRID ARRAY A2F500M3G-FG4841 SINGAPORE 60 NOS 148258.51 2470.97 2216.12 36.93 84
23-04-2016 00:00:00 Trivendrun Air Cargo 38220090 APOPTAG PEROXIDASE DET KIT (LAB REAGENTS) FRANCE 1 PCS 51063.08 51063.08 763.27 763.27 38
23-04-2016 00:00:00 Trivendrun Air Cargo 85043100 CONTROL BOX-CB6S674+X4409 MINI 0847-07 FOB DONOR COUCH-UNDER 1KVA DENMARK 50 NOS 286117.01 5722.34 4276.78 85.53 85
23-04-2016 00:00:00 Trivendrun Air Cargo 85366990 TRB BULKHEAD JACK INSULATED STRAIGHTFRONT MOUNT 3 LUG BJ72 UNITED KINGDOM 10 NOS 22074.78 2207.47 329.96 32.99 85
23-04-2016 00:00:00 Trivendrun Air Cargo 90318000 PRESSURE TRANSDUCER8530C-15 UNITED STATES 90 NOS 5822939.14 64699.32 87039.44 967.10 90
23-04-2016 00:00:00 Trivendrun Air Cargo 90318000 HIGH LEVEL PE MICROPHONE2510M4A UNITED STATES 11 NOS 1768612.50 160782.95 26436.65 2403.33 90
23-04-2016 00:00:00 Trivendrun Air Cargo 90318000 INSULATED MOUNNTING STUD2986B UNITED STATES 90 NOS 768997.68 8544.41 11494.73 127.71 90
23-04-2016 00:00:00 Trivendrun Air Cargo 85432090 33512B ,33500B SERIES WAVEFORM GENERATOR MALAYSIA 1 NOS 177394.75 177394.75 2651.64 2651.64 85
23-04-2016 00:00:00 Trivendrun Air Cargo 85432090 33512B-MEM ADD 16M MEMORY MALAYSIA 1 NOS 29063.39 29063.39 434.43 434.43 85
23-04-2016 00:00:00 Trivendrun Air Cargo 85238090 33503A BENCH LINK WAVEFORM BUILDER PRO SOFTWARE LICENSE MALAYSIA 1 NOS 44476.66 44476.66 664.82 664.82 85
23-04-2016 00:00:00 Trivendrun Air Cargo 90314900 COATING THICKNESS GUAGE DUAL SCOPE FMP20WITH ACCESSORIES SWITZERLAND 1 UNT 260483.98 260483.98 3893.63 3893.63 90
23-04-2016 00:00:00 Trivendrun Air Cargo 85442090 POLA RXS PRO ALONG WITH CHOKERING MC 710012 LOW FREQUENCY RFANTENNA CABLE CBL ANT TNCLL2520041 INCLUDING COMPUTER 400082 NETHERLANDS 6 NOS 7377465.09 1229577.51 110276.01 18379.33 85
23-04-2016 00:00:00 Trivendrun Air Cargo 38180090 POTTING COMPOUNDS RTV 314090ML TUBEAS PER MIL UNITED STATES 24 NOS 55327.31 2305.30 827.01 34.45 38
23-04-2016 00:00:00 Trivendrun Air Cargo 38180090 POTTING COMPOUNDS RTV 314590ML TUBEAS PER MIL UNITED STATES 3 NOS 12318.97 4106.32 184.14 61.38 38
15-04-2016 00:00:00 Trivendrun Air Cargo 85340000 PCB CAD ARD 06/15 ISRAEL 24 NOS 150675.26 6278.13 2232.22 93.00 85
15-04-2016 00:00:00 Trivendrun Air Cargo 85340000 PCB CAD ARD 06/15NRE ISRAEL 1 NOS 44843.83 44843.83 664.35 664.35 85
15-04-2016 00:00:00 Trivendrun Air Cargo 84818090 TUBES OUT OF CANEVASIT FBAT V RING SINGAPORE 10 NOS 112452.86 11245.28 1665.96 166.59 84
15-04-2016 00:00:00 Trivendrun Air Cargo 22083099 DEWARS WHITE LABEL WHISKY FRANCE 120 LTR 39692.00 330.76 588.02 4.90 22
15-04-2016 00:00:00 Trivendrun Air Cargo 38210000 PREPARED CULTURE MEDIA G-MOPS TM PLUS 125 ML SWEDEN 5 KGS 163050.57 32610.11 2415.56 483.11 38
15-04-2016 00:00:00 Trivendrun Air Cargo 38210000 PREPARED CULTURE MEDIA G-1 TM PLUS 30 ML SWEDEN 0 KGS 40762.72 135875.73 603.89 2012.97 38
15-04-2016 00:00:00 Trivendrun Air Cargo 38210000 PREPARED CULTURE MEDIA G-1 TM PLUS 10 ML SWEDEN 0 KGS 8560.15 171203.00 126.81 2536.34 38
15-04-2016 00:00:00 Trivendrun Air Cargo 38210000 PREPARED CULTURE MEDIA G-2 TM PLUS 30 ML SWEDEN 0 KGS 21196.53 141310.20 314.02 2093.48 38

Client Info